Aérodrome :
LOGIN :

S'inscrire | Disclaimer

   EN    FR    IT 

 










Légende :    VFR   VFR Marginal   IFR   IFR Intensif   IFR Très Intensif
Visi : 
Plafond : 
>= 8 km
>= 3000ft
5 à 8 km
1000 à 3000 ft
1500m à 5 km
500 à 1000 ft
800 à 1500m
200 à 500 ft
< 800m
< 200 ft
Symboles :   Orages  Brouillard  Fortes neiges  Fortes précipitations  Vent > 20 kt
SIGMETs :   Divers  Orages  Givrage  Turbulence  Onde Orograph.  Cendres Volcan.







- Altitude de l'aérodrome : 353 ft
- Code IATA : LIN


LIML - Milano Linate

DERNIER METAR :
  • 271250Z 10006KT 050V140 9000 -RA SCT010 BKN045 16/15 Q1011 RERA NOSIG

METARs EXPIRÉS :
  • 271220Z 09007KT 6000 RA SCT007 BKN035 16/15 Q1011 NOSIG
  • 271050Z 12009KT 6000 RA SCT007 BKN025 16/15 Q1011 NOSIG
  • 271020Z 13008KT 6000 RA SCT007 BKN025 16/15 Q1011 NOSIG

TAF TAF LIML
Valide du 27 à 12h jusqu'au 28 à 12h UTC


271100Z 2712/2812 VRB05KT 9999 BKN030 BN070
TEMPO 2712/2806 RA
Pas de NOTAMs connus pour ce terrain.
1 SIGMET publié pour la FIR Milano (LIMM) :
 
Turbulence forte
LIMM SIGMET 4 VALID 271250/271650 LIIP
LIMM MILANO FIR SEV TURB FCST NE OF LINE N4612 E00859 - N4331 E01207 FL300/400 MOV E NC=



MET'MAP, la Météo Aéronautique d'un coup d'oeil ! - Copyright ORBIFLY Décembre 2007 - Disclaimer

ORBIFLY MET'MAP TEAM :

Programmation & Développement : Alexandra Zaïnal
Conception & Développement : Baudouin d'Aumeries
Co-Programmation & Développement : Marc-Olivier Méhu
Soutien technique & logistique : Manuel Goepfert

Contact : metmap@orbifly.com




SOURCES & CREDITS :

   NOAA